sensor_id;sensor_type;location;lat;lon;timestamp;P1;durP1;ratioP1;P2;durP2;ratioP2
7021;SDS011;3552;42.664;23.406;2022-11-20T00:01:05;12.37;;;6.50;;
7021;SDS011;3552;42.664;23.406;2022-11-20T00:03:32;18.27;;;7.17;;
7021;SDS011;3552;42.664;23.406;2022-11-20T00:06:08;11.97;;;6.70;;
7021;SDS011;3552;42.664;23.406;2022-11-20T00:08:51;11.73;;;7.30;;
7021;SDS011;3552;42.664;23.406;2022-11-20T00:11:21;13.17;;;7.77;;
7021;SDS011;3552;42.664;23.406;2022-11-20T00:13:50;12.33;;;8.00;;
7021;SDS011;3552;42.664;23.406;2022-11-20T00:16:18;13.40;;;7.87;;
7021;SDS011;3552;42.664;23.406;2022-11-20T00:18:47;13.10;;;9.93;;
7021;SDS011;3552;42.664;23.406;2022-11-20T00:21:17;11.73;;;6.87;;
7021;SDS011;3552;42.664;23.406;2022-11-20T00:23:45;9.50;;;6.83;;
7021;SDS011;3552;42.664;23.406;2022-11-20T00:26:14;10.37;;;6.43;;
7021;SDS011;3552;42.664;23.406;2022-11-20T00:28:42;4.70;;;3.40;;
7021;SDS011;3552;42.664;23.406;2022-11-20T00:31:12;6.23;;;3.30;;
7021;SDS011;3552;42.664;23.406;2022-11-20T00:33:40;7.67;;;4.40;;
7021;SDS011;3552;42.664;23.406;2022-11-20T00:36:08;9.83;;;5.17;;
7021;SDS011;3552;42.664;23.406;2022-11-20T00:38:37;9.13;;;5.30;;
7021;SDS011;3552;42.664;23.406;2022-11-20T00:41:06;7.70;;;5.20;;
7021;SDS011;3552;42.664;23.406;2022-11-20T00:43:34;8.77;;;5.70;;
7021;SDS011;3552;42.664;23.406;2022-11-20T00:46:02;8.43;;;4.93;;
7021;SDS011;3552;42.664;23.406;2022-11-20T00:48:30;9.80;;;4.93;;
7021;SDS011;3552;42.664;23.406;2022-11-20T00:50:58;11.97;;;5.27;;
7021;SDS011;3552;42.664;23.406;2022-11-20T00:53:25;8.63;;;5.40;;
7021;SDS011;3552;42.664;23.406;2022-11-20T00:55:54;10.10;;;6.33;;
7021;SDS011;3552;42.664;23.406;2022-11-20T00:58:22;10.07;;;4.93;;
7021;SDS011;3552;42.664;23.406;2022-11-20T01:00:49;12.40;;;5.30;;
7021;SDS011;3552;42.664;23.406;2022-11-20T01:03:17;10.80;;;5.43;;
7021;SDS011;3552;42.664;23.406;2022-11-20T01:05:44;8.63;;;5.03;;
7021;SDS011;3552;42.664;23.406;2022-11-20T01:08:11;9.83;;;5.23;;
7021;SDS011;3552;42.664;23.406;2022-11-20T01:10:38;11.97;;;4.87;;
7021;SDS011;3552;42.664;23.406;2022-11-20T01:13:07;6.67;;;4.57;;
7021;SDS011;3552;42.664;23.406;2022-11-20T01:15:52;9.63;;;4.87;;
7021;SDS011;3552;42.664;23.406;2022-11-20T01:18:19;9.07;;;5.30;;
7021;SDS011;3552;42.664;23.406;2022-11-20T01:20:46;10.93;;;5.23;;
7021;SDS011;3552;42.664;23.406;2022-11-20T01:23:13;8.77;;;3.93;;
7021;SDS011;3552;42.664;23.406;2022-11-20T01:25:40;4.93;;;2.87;;
7021;SDS011;3552;42.664;23.406;2022-11-20T01:28:09;7.27;;;3.67;;
7021;SDS011;3552;42.664;23.406;2022-11-20T01:30:35;9.80;;;4.87;;
7021;SDS011;3552;42.664;23.406;2022-11-20T01:33:02;9.30;;;4.53;;
7021;SDS011;3552;42.664;23.406;2022-11-20T01:35:29;8.83;;;4.20;;
7021;SDS011;3552;42.664;23.406;2022-11-20T01:37:56;8.53;;;4.90;;
7021;SDS011;3552;42.664;23.406;2022-11-20T01:40:23;8.07;;;4.27;;
7021;SDS011;3552;42.664;23.406;2022-11-20T01:42:52;10.30;;;5.87;;
7021;SDS011;3552;42.664;23.406;2022-11-20T01:46:05;12.33;;;7.40;;
7021;SDS011;3552;42.664;23.406;2022-11-20T01:48:42;14.40;;;7.27;;
7021;SDS011;3552;42.664;23.406;2022-11-20T01:51:17;12.37;;;7.03;;
7021;SDS011;3552;42.664;23.406;2022-11-20T01:53:47;14.77;;;6.47;;
7021;SDS011;3552;42.664;23.406;2022-11-20T01:56:15;10.83;;;5.97;;
7021;SDS011;3552;42.664;23.406;2022-11-20T01:58:43;8.07;;;5.27;;
7021;SDS011;3552;42.664;23.406;2022-11-20T02:01:16;9.37;;;4.60;;
7021;SDS011;3552;42.664;23.406;2022-11-20T02:03:43;11.07;;;4.93;;
7021;SDS011;3552;42.664;23.406;2022-11-20T02:06:12;7.50;;;4.50;;
7021;SDS011;3552;42.664;23.406;2022-11-20T02:08:44;9.83;;;4.20;;
7021;SDS011;3552;42.664;23.406;2022-11-20T02:11:11;7.20;;;3.40;;
7021;SDS011;3552;42.664;23.406;2022-11-20T02:13:39;8.53;;;3.57;;
7021;SDS011;3552;42.664;23.406;2022-11-20T02:16:08;7.50;;;2.93;;
7021;SDS011;3552;42.664;23.406;2022-11-20T02:18:39;7.07;;;3.50;;
7021;SDS011;3552;42.664;23.406;2022-11-20T02:21:07;7.30;;;3.87;;
7021;SDS011;3552;42.664;23.406;2022-11-20T02:23:39;4.63;;;3.23;;
7021;SDS011;3552;42.664;23.406;2022-11-20T02:26:21;5.30;;;3.07;;
7021;SDS011;3552;42.664;23.406;2022-11-20T02:28:50;4.70;;;3.07;;
7021;SDS011;3552;42.664;23.406;2022-11-20T02:31:17;6.40;;;3.20;;
7021;SDS011;3552;42.664;23.406;2022-11-20T02:33:45;5.37;;;3.17;;
7021;SDS011;3552;42.664;23.406;2022-11-20T02:36:13;4.07;;;2.40;;
7021;SDS011;3552;42.664;23.406;2022-11-20T02:38:42;4.03;;;2.00;;
7021;SDS011;3552;42.664;23.406;2022-11-20T02:41:11;8.30;;;3.07;;
7021;SDS011;3552;42.664;23.406;2022-11-20T02:43:38;3.43;;;2.73;;
7021;SDS011;3552;42.664;23.406;2022-11-20T02:46:06;7.20;;;3.20;;
7021;SDS011;3552;42.664;23.406;2022-11-20T02:48:33;4.10;;;2.73;;
7021;SDS011;3552;42.664;23.406;2022-11-20T02:51:00;6.50;;;1.90;;
7021;SDS011;3552;42.664;23.406;2022-11-20T02:53:27;4.30;;;1.77;;
7021;SDS011;3552;42.664;23.406;2022-11-20T02:55:55;2.80;;;1.57;;
7021;SDS011;3552;42.664;23.406;2022-11-20T02:58:24;3.80;;;1.73;;
7021;SDS011;3552;42.664;23.406;2022-11-20T03:00:51;3.47;;;1.77;;
7021;SDS011;3552;42.664;23.406;2022-11-20T03:03:18;2.07;;;1.60;;
7021;SDS011;3552;42.664;23.406;2022-11-20T03:05:46;4.20;;;1.87;;
7021;SDS011;3552;42.664;23.406;2022-11-20T03:08:13;3.77;;;1.60;;
7021;SDS011;3552;42.664;23.406;2022-11-20T03:10:40;9.33;;;1.80;;
7021;SDS011;3552;42.664;23.406;2022-11-20T03:13:07;2.03;;;1.20;;
7021;SDS011;3552;42.664;23.406;2022-11-20T03:15:37;3.10;;;1.13;;
7021;SDS011;3552;42.664;23.406;2022-11-20T03:18:04;5.53;;;1.37;;
7021;SDS011;3552;42.664;23.406;2022-11-20T03:20:32;4.40;;;1.27;;
7021;SDS011;3552;42.664;23.406;2022-11-20T03:22:59;2.17;;;0.90;;
7021;SDS011;3552;42.664;23.406;2022-11-20T03:25:27;2.00;;;1.00;;
7021;SDS011;3552;42.664;23.406;2022-11-20T03:27:54;2.73;;;1.20;;
7021;SDS011;3552;42.664;23.406;2022-11-20T03:30:21;2.20;;;1.00;;
7021;SDS011;3552;42.664;23.406;2022-11-20T03:32:52;2.33;;;1.17;;
7021;SDS011;3552;42.664;23.406;2022-11-20T03:35:19;2.40;;;1.20;;
7021;SDS011;3552;42.664;23.406;2022-11-20T03:37:46;3.50;;;1.30;;
7021;SDS011;3552;42.664;23.406;2022-11-20T03:40:13;1.27;;;1.00;;
7021;SDS011;3552;42.664;23.406;2022-11-20T03:42:40;3.90;;;1.30;;
7021;SDS011;3552;42.664;23.406;2022-11-20T03:45:13;4.43;;;1.10;;
7021;SDS011;3552;42.664;23.406;2022-11-20T03:47:40;1.60;;;1.10;;
7021;SDS011;3552;42.664;23.406;2022-11-20T03:50:10;2.83;;;1.43;;
7021;SDS011;3552;42.664;23.406;2022-11-20T03:52:38;2.53;;;1.17;;
7021;SDS011;3552;42.664;23.406;2022-11-20T03:55:06;5.90;;;1.30;;
7021;SDS011;3552;42.664;23.406;2022-11-20T03:57:33;4.50;;;1.53;;
7021;SDS011;3552;42.664;23.406;2022-11-20T04:00:00;2.23;;;1.33;;
7021;SDS011;3552;42.664;23.406;2022-11-20T04:02:27;2.03;;;1.00;;
7021;SDS011;3552;42.664;23.406;2022-11-20T04:04:54;3.47;;;1.03;;
7021;SDS011;3552;42.664;23.406;2022-11-20T04:07:23;4.67;;;1.40;;
7021;SDS011;3552;42.664;23.406;2022-11-20T04:09:49;2.47;;;1.70;;
7021;SDS011;3552;42.664;23.406;2022-11-20T04:12:16;6.43;;;1.80;;
7021;SDS011;3552;42.664;23.406;2022-11-20T04:14:43;4.90;;;1.20;;
7021;SDS011;3552;42.664;23.406;2022-11-20T04:17:09;3.93;;;1.40;;
7021;SDS011;3552;42.664;23.406;2022-11-20T04:19:38;7.93;;;1.73;;
7021;SDS011;3552;42.664;23.406;2022-11-20T04:22:04;2.70;;;1.30;;
7021;SDS011;3552;42.664;23.406;2022-11-20T04:24:33;6.03;;;1.13;;
7021;SDS011;3552;42.664;23.406;2022-11-20T04:26:59;2.00;;;1.10;;
7021;SDS011;3552;42.664;23.406;2022-11-20T04:29:26;2.23;;;1.13;;
7021;SDS011;3552;42.664;23.406;2022-11-20T04:31:53;2.97;;;1.30;;
7021;SDS011;3552;42.664;23.406;2022-11-20T04:34:21;2.00;;;1.10;;
7021;SDS011;3552;42.664;23.406;2022-11-20T04:36:48;10.83;;;1.40;;
7021;SDS011;3552;42.664;23.406;2022-11-20T04:39:15;2.63;;;1.17;;
7021;SDS011;3552;42.664;23.406;2022-11-20T04:41:44;3.53;;;1.30;;
7021;SDS011;3552;42.664;23.406;2022-11-20T04:44:11;3.27;;;0.90;;
7021;SDS011;3552;42.664;23.406;2022-11-20T04:46:38;1.80;;;1.03;;
7021;SDS011;3552;42.664;23.406;2022-11-20T04:49:06;2.40;;;1.30;;
7021;SDS011;3552;42.664;23.406;2022-11-20T04:51:34;3.63;;;1.23;;
7021;SDS011;3552;42.664;23.406;2022-11-20T04:54:02;3.97;;;0.97;;
7021;SDS011;3552;42.664;23.406;2022-11-20T04:56:30;2.13;;;0.90;;
7021;SDS011;3552;42.664;23.406;2022-11-20T04:59:01;2.13;;;1.60;;
7021;SDS011;3552;42.664;23.406;2022-11-20T05:01:28;2.37;;;1.90;;
7021;SDS011;3552;42.664;23.406;2022-11-20T05:03:55;3.13;;;1.40;;
7021;SDS011;3552;42.664;23.406;2022-11-20T05:06:22;1.87;;;1.13;;
7021;SDS011;3552;42.664;23.406;2022-11-20T05:08:49;1.50;;;1.00;;
7021;SDS011;3552;42.664;23.406;2022-11-20T05:11:17;1.03;;;0.93;;
7021;SDS011;3552;42.664;23.406;2022-11-20T05:13:45;5.90;;;1.23;;
7021;SDS011;3552;42.664;23.406;2022-11-20T05:16:15;4.87;;;1.67;;
7021;SDS011;3552;42.664;23.406;2022-11-20T05:18:42;5.23;;;1.50;;
7021;SDS011;3552;42.664;23.406;2022-11-20T05:21:10;3.50;;;1.03;;
7021;SDS011;3552;42.664;23.406;2022-11-20T05:23:38;4.43;;;1.10;;
7021;SDS011;3552;42.664;23.406;2022-11-20T05:26:06;2.37;;;0.90;;
7021;SDS011;3552;42.664;23.406;2022-11-20T05:28:33;1.63;;;0.93;;
7021;SDS011;3552;42.664;23.406;2022-11-20T05:31:04;2.87;;;1.27;;
7021;SDS011;3552;42.664;23.406;2022-11-20T05:33:34;3.37;;;1.13;;
7021;SDS011;3552;42.664;23.406;2022-11-20T05:36:03;6.00;;;1.33;;
7021;SDS011;3552;42.664;23.406;2022-11-20T05:38:31;3.90;;;1.37;;
7021;SDS011;3552;42.664;23.406;2022-11-20T05:41:08;5.43;;;1.20;;
7021;SDS011;3552;42.664;23.406;2022-11-20T05:43:36;2.73;;;1.20;;
7021;SDS011;3552;42.664;23.406;2022-11-20T05:46:05;3.70;;;1.17;;
7021;SDS011;3552;42.664;23.406;2022-11-20T05:48:34;6.07;;;1.33;;
7021;SDS011;3552;42.664;23.406;2022-11-20T05:51:01;2.03;;;1.03;;
7021;SDS011;3552;42.664;23.406;2022-11-20T05:53:29;8.60;;;1.60;;
7021;SDS011;3552;42.664;23.406;2022-11-20T05:55:57;4.70;;;1.90;;
7021;SDS011;3552;42.664;23.406;2022-11-20T05:58:25;3.57;;;1.50;;
7021;SDS011;3552;42.664;23.406;2022-11-20T06:00:52;4.30;;;1.70;;
7021;SDS011;3552;42.664;23.406;2022-11-20T06:03:19;2.50;;;1.47;;
7021;SDS011;3552;42.664;23.406;2022-11-20T06:05:47;2.90;;;1.30;;
7021;SDS011;3552;42.664;23.406;2022-11-20T06:08:14;6.27;;;2.20;;
7021;SDS011;3552;42.664;23.406;2022-11-20T06:10:41;4.20;;;1.57;;
7021;SDS011;3552;42.664;23.406;2022-11-20T06:13:08;8.93;;;1.80;;
7021;SDS011;3552;42.664;23.406;2022-11-20T06:15:35;10.60;;;4.00;;
7021;SDS011;3552;42.664;23.406;2022-11-20T06:18:02;9.03;;;4.80;;
7021;SDS011;3552;42.664;23.406;2022-11-20T06:20:29;5.97;;;3.77;;
7021;SDS011;3552;42.664;23.406;2022-11-20T06:23:02;5.20;;;2.23;;
7021;SDS011;3552;42.664;23.406;2022-11-20T06:25:37;6.33;;;3.20;;
7021;SDS011;3552;42.664;23.406;2022-11-20T06:28:05;5.67;;;2.40;;
7021;SDS011;3552;42.664;23.406;2022-11-20T06:30:32;4.03;;;1.70;;
7021;SDS011;3552;42.664;23.406;2022-11-20T06:32:59;5.27;;;2.10;;
7021;SDS011;3552;42.664;23.406;2022-11-20T06:35:26;9.67;;;2.90;;
7021;SDS011;3552;42.664;23.406;2022-11-20T06:37:55;9.03;;;3.27;;
7021;SDS011;3552;42.664;23.406;2022-11-20T06:40:24;6.97;;;2.77;;
7021;SDS011;3552;42.664;23.406;2022-11-20T06:42:50;14.90;;;9.80;;
7021;SDS011;3552;42.664;23.406;2022-11-20T06:45:19;4.43;;;1.80;;
7021;SDS011;3552;42.664;23.406;2022-11-20T06:47:46;2.33;;;1.10;;
7021;SDS011;3552;42.664;23.406;2022-11-20T06:50:13;1.87;;;1.10;;
7021;SDS011;3552;42.664;23.406;2022-11-20T06:52:40;1.77;;;0.90;;
7021;SDS011;3552;42.664;23.406;2022-11-20T06:55:07;4.80;;;2.10;;
7021;SDS011;3552;42.664;23.406;2022-11-20T06:57:36;4.73;;;1.53;;
7021;SDS011;3552;42.664;23.406;2022-11-20T07:00:03;6.80;;;1.90;;
7021;SDS011;3552;42.664;23.406;2022-11-20T07:02:30;3.27;;;1.43;;
7021;SDS011;3552;42.664;23.406;2022-11-20T07:04:57;3.67;;;1.50;;
7021;SDS011;3552;42.664;23.406;2022-11-20T07:07:24;3.57;;;1.20;;
7021;SDS011;3552;42.664;23.406;2022-11-20T07:09:51;3.77;;;1.40;;
7021;SDS011;3552;42.664;23.406;2022-11-20T07:12:19;4.00;;;1.70;;
7021;SDS011;3552;42.664;23.406;2022-11-20T07:14:48;6.30;;;1.87;;
7021;SDS011;3552;42.664;23.406;2022-11-20T07:17:15;8.07;;;2.43;;
7021;SDS011;3552;42.664;23.406;2022-11-20T07:19:42;3.97;;;1.50;;
7021;SDS011;3552;42.664;23.406;2022-11-20T07:22:10;2.63;;;1.27;;
7021;SDS011;3552;42.664;23.406;2022-11-20T07:24:37;4.03;;;1.20;;
7021;SDS011;3552;42.664;23.406;2022-11-20T07:27:04;5.87;;;1.77;;
7021;SDS011;3552;42.664;23.406;2022-11-20T07:29:32;6.17;;;1.40;;
7021;SDS011;3552;42.664;23.406;2022-11-20T07:32:03;4.10;;;1.43;;
7021;SDS011;3552;42.664;23.406;2022-11-20T07:34:30;2.63;;;1.20;;
7021;SDS011;3552;42.664;23.406;2022-11-20T07:36:59;3.73;;;1.70;;
7021;SDS011;3552;42.664;23.406;2022-11-20T07:39:26;4.83;;;1.53;;
7021;SDS011;3552;42.664;23.406;2022-11-20T07:41:53;6.77;;;2.20;;
7021;SDS011;3552;42.664;23.406;2022-11-20T07:44:20;6.27;;;1.60;;
7021;SDS011;3552;42.664;23.406;2022-11-20T07:46:46;9.50;;;1.67;;
7021;SDS011;3552;42.664;23.406;2022-11-20T07:49:15;6.40;;;1.40;;
7021;SDS011;3552;42.664;23.406;2022-11-20T07:51:41;3.43;;;1.40;;
7021;SDS011;3552;42.664;23.406;2022-11-20T07:54:09;3.57;;;1.33;;
7021;SDS011;3552;42.664;23.406;2022-11-20T07:56:36;5.00;;;1.57;;
7021;SDS011;3552;42.664;23.406;2022-11-20T07:59:03;5.90;;;1.77;;
7021;SDS011;3552;42.664;23.406;2022-11-20T08:01:31;7.50;;;1.30;;
7021;SDS011;3552;42.664;23.406;2022-11-20T08:03:59;3.63;;;1.20;;
7021;SDS011;3552;42.664;23.406;2022-11-20T08:06:27;5.60;;;1.40;;
7021;SDS011;3552;42.664;23.406;2022-11-20T08:08:53;5.03;;;1.20;;
7021;SDS011;3552;42.664;23.406;2022-11-20T08:11:20;5.27;;;2.47;;
7021;SDS011;3552;42.664;23.406;2022-11-20T08:14:10;3.07;;;1.27;;
7021;SDS011;3552;42.664;23.406;2022-11-20T08:16:42;7.13;;;1.90;;
7021;SDS011;3552;42.664;23.406;2022-11-20T08:19:10;4.20;;;1.40;;
7021;SDS011;3552;42.664;23.406;2022-11-20T08:21:39;4.93;;;1.70;;
7021;SDS011;3552;42.664;23.406;2022-11-20T08:24:06;4.67;;;1.40;;
7021;SDS011;3552;42.664;23.406;2022-11-20T08:26:34;6.77;;;1.47;;
7021;SDS011;3552;42.664;23.406;2022-11-20T08:29:04;9.07;;;2.30;;
7021;SDS011;3552;42.664;23.406;2022-11-20T08:31:31;5.70;;;1.70;;
7021;SDS011;3552;42.664;23.406;2022-11-20T08:33:59;4.97;;;2.10;;
7021;SDS011;3552;42.664;23.406;2022-11-20T08:36:26;5.27;;;1.90;;
7021;SDS011;3552;42.664;23.406;2022-11-20T08:38:55;6.67;;;2.37;;
7021;SDS011;3552;42.664;23.406;2022-11-20T08:41:22;5.27;;;2.50;;
7021;SDS011;3552;42.664;23.406;2022-11-20T08:43:53;8.13;;;2.13;;
7021;SDS011;3552;42.664;23.406;2022-11-20T08:46:21;9.50;;;1.97;;
7021;SDS011;3552;42.664;23.406;2022-11-20T08:48:50;5.53;;;1.97;;
7021;SDS011;3552;42.664;23.406;2022-11-20T08:51:17;6.20;;;1.70;;
7021;SDS011;3552;42.664;23.406;2022-11-20T08:53:46;5.50;;;1.77;;
7021;SDS011;3552;42.664;23.406;2022-11-20T08:56:17;3.70;;;1.37;;
7021;SDS011;3552;42.664;23.406;2022-11-20T08:58:44;5.73;;;1.80;;
7021;SDS011;3552;42.664;23.406;2022-11-20T09:01:11;6.93;;;1.70;;
7021;SDS011;3552;42.664;23.406;2022-11-20T09:03:38;6.53;;;2.13;;
7021;SDS011;3552;42.664;23.406;2022-11-20T09:06:05;8.37;;;1.73;;
7021;SDS011;3552;42.664;23.406;2022-11-20T09:08:33;4.37;;;1.60;;
7021;SDS011;3552;42.664;23.406;2022-11-20T09:11:01;7.93;;;1.70;;
7021;SDS011;3552;42.664;23.406;2022-11-20T09:13:30;7.83;;;1.50;;
7021;SDS011;3552;42.664;23.406;2022-11-20T09:15:58;10.93;;;2.10;;
7021;SDS011;3552;42.664;23.406;2022-11-20T09:18:27;11.13;;;4.07;;
7021;SDS011;3552;42.664;23.406;2022-11-20T09:20:56;13.20;;;5.50;;
7021;SDS011;3552;42.664;23.406;2022-11-20T09:23:23;15.50;;;5.67;;
7021;SDS011;3552;42.664;23.406;2022-11-20T09:25:50;12.03;;;6.70;;
7021;SDS011;3552;42.664;23.406;2022-11-20T09:28:17;10.47;;;4.47;;
7021;SDS011;3552;42.664;23.406;2022-11-20T09:30:46;15.50;;;7.97;;
7021;SDS011;3552;42.664;23.406;2022-11-20T09:33:13;13.03;;;6.63;;
7021;SDS011;3552;42.664;23.406;2022-11-20T09:35:40;5.40;;;3.10;;
7021;SDS011;3552;42.664;23.406;2022-11-20T09:38:08;3.53;;;2.80;;
7021;SDS011;3552;42.664;23.406;2022-11-20T09:40:36;5.97;;;2.90;;
7021;SDS011;3552;42.664;23.406;2022-11-20T09:43:07;4.50;;;2.60;;
7021;SDS011;3552;42.664;23.406;2022-11-20T09:45:47;2.73;;;1.57;;
7021;SDS011;3552;42.664;23.406;2022-11-20T09:51:32;2.80;;;1.90;;
7021;SDS011;3552;42.664;23.406;2022-11-20T09:54:12;6.97;;;2.07;;
7021;SDS011;3552;42.664;23.406;2022-11-20T09:56:44;2.47;;;1.80;;
7021;SDS011;3552;42.664;23.406;2022-11-20T09:59:18;5.50;;;1.40;;
7021;SDS011;3552;42.664;23.406;2022-11-20T10:01:57;4.27;;;2.03;;
7021;SDS011;3552;42.664;23.406;2022-11-20T10:04:26;3.07;;;1.77;;
7021;SDS011;3552;42.664;23.406;2022-11-20T10:07:00;3.47;;;1.30;;
7021;SDS011;3552;42.664;23.406;2022-11-20T10:09:31;3.37;;;1.70;;
7021;SDS011;3552;42.664;23.406;2022-11-20T10:12:06;2.07;;;1.43;;
7021;SDS011;3552;42.664;23.406;2022-11-20T10:14:42;6.40;;;2.40;;
7021;SDS011;3552;42.664;23.406;2022-11-20T10:17:22;7.20;;;3.13;;
7021;SDS011;3552;42.664;23.406;2022-11-20T10:20:02;7.80;;;2.47;;
7021;SDS011;3552;42.664;23.406;2022-11-20T10:22:44;12.63;;;2.87;;
7021;SDS011;3552;42.664;23.406;2022-11-20T10:25:24;13.67;;;3.37;;
7021;SDS011;3552;42.664;23.406;2022-11-20T10:28:03;11.50;;;3.13;;
7021;SDS011;3552;42.664;23.406;2022-11-20T10:30:42;7.67;;;2.70;;
7021;SDS011;3552;42.664;23.406;2022-11-20T10:33:15;8.73;;;3.60;;
7021;SDS011;3552;42.664;23.406;2022-11-20T10:35:48;6.57;;;2.90;;
7021;SDS011;3552;42.664;23.406;2022-11-20T10:38:19;6.67;;;2.67;;
7021;SDS011;3552;42.664;23.406;2022-11-20T10:40:51;7.70;;;3.10;;
7021;SDS011;3552;42.664;23.406;2022-11-20T10:43:43;7.57;;;3.10;;
7021;SDS011;3552;42.664;23.406;2022-11-20T10:46:12;9.00;;;3.67;;
7021;SDS011;3552;42.664;23.406;2022-11-20T10:48:43;9.13;;;3.67;;
7021;SDS011;3552;42.664;23.406;2022-11-20T10:51:13;7.10;;;3.20;;
7021;SDS011;3552;42.664;23.406;2022-11-20T10:53:51;9.80;;;3.33;;
7021;SDS011;3552;42.664;23.406;2022-11-20T10:56:25;11.43;;;5.43;;
7021;SDS011;3552;42.664;23.406;2022-11-20T10:59:04;14.07;;;4.90;;
7021;SDS011;3552;42.664;23.406;2022-11-20T11:01:42;8.60;;;3.97;;
7021;SDS011;3552;42.664;23.406;2022-11-20T11:04:16;9.73;;;6.27;;
7021;SDS011;3552;42.664;23.406;2022-11-20T11:06:58;10.57;;;5.47;;
7021;SDS011;3552;42.664;23.406;2022-11-20T11:09:35;10.17;;;6.00;;
7021;SDS011;3552;42.664;23.406;2022-11-20T11:12:06;15.83;;;5.60;;
7021;SDS011;3552;42.664;23.406;2022-11-20T11:14:41;7.70;;;4.47;;
7021;SDS011;3552;42.664;23.406;2022-11-20T11:17:18;15.07;;;4.60;;
7021;SDS011;3552;42.664;23.406;2022-11-20T11:19:58;10.50;;;4.50;;
7021;SDS011;3552;42.664;23.406;2022-11-20T11:22:26;19.97;;;6.57;;
7021;SDS011;3552;42.664;23.406;2022-11-20T11:24:55;19.53;;;7.17;;
7021;SDS011;3552;42.664;23.406;2022-11-20T11:27:22;20.80;;;7.17;;
7021;SDS011;3552;42.664;23.406;2022-11-20T11:29:49;15.93;;;5.00;;
7021;SDS011;3552;42.664;23.406;2022-11-20T11:32:18;10.27;;;3.10;;
7021;SDS011;3552;42.664;23.406;2022-11-20T11:34:59;5.37;;;3.23;;
7021;SDS011;3552;42.664;23.406;2022-11-20T11:37:28;7.57;;;2.60;;
7021;SDS011;3552;42.664;23.406;2022-11-20T11:40:00;7.43;;;4.00;;
7021;SDS011;3552;42.664;23.406;2022-11-20T11:42:28;1.97;;;1.53;;
7021;SDS011;3552;42.664;23.406;2022-11-20T11:44:56;2.53;;;1.03;;
7021;SDS011;3552;42.664;23.406;2022-11-20T11:47:30;2.57;;;1.10;;
7021;SDS011;3552;42.664;23.406;2022-11-20T11:50:13;2.33;;;0.80;;
7021;SDS011;3552;42.664;23.406;2022-11-20T11:52:42;1.50;;;1.00;;
7021;SDS011;3552;42.664;23.406;2022-11-20T11:55:14;1.67;;;1.07;;
7021;SDS011;3552;42.664;23.406;2022-11-20T11:57:47;3.83;;;1.33;;
7021;SDS011;3552;42.664;23.406;2022-11-20T12:00:20;4.67;;;1.33;;
7021;SDS011;3552;42.664;23.406;2022-11-20T12:02:52;5.73;;;1.80;;
7021;SDS011;3552;42.664;23.406;2022-11-20T12:05:27;2.40;;;1.53;;
7021;SDS011;3552;42.664;23.406;2022-11-20T12:08:04;5.20;;;1.90;;
7021;SDS011;3552;42.664;23.406;2022-11-20T12:10:41;4.70;;;1.90;;
7021;SDS011;3552;42.664;23.406;2022-11-20T12:13:15;5.93;;;1.73;;
7021;SDS011;3552;42.664;23.406;2022-11-20T12:15:50;4.60;;;1.90;;
7021;SDS011;3552;42.664;23.406;2022-11-20T12:18:18;4.50;;;1.80;;
7021;SDS011;3552;42.664;23.406;2022-11-20T12:20:51;1.30;;;0.70;;
7021;SDS011;3552;42.664;23.406;2022-11-20T12:23:28;2.23;;;1.00;;
7021;SDS011;3552;42.664;23.406;2022-11-20T12:26:10;1.57;;;0.83;;
7021;SDS011;3552;42.664;23.406;2022-11-20T12:28:48;2.83;;;0.60;;
7021;SDS011;3552;42.664;23.406;2022-11-20T12:31:31;3.43;;;0.50;;
7021;SDS011;3552;42.664;23.406;2022-11-20T12:34:17;3.10;;;0.60;;
7021;SDS011;3552;42.664;23.406;2022-11-20T12:37:08;0.87;;;0.73;;
7021;SDS011;3552;42.664;23.406;2022-11-20T12:39:48;0.70;;;0.60;;
7021;SDS011;3552;42.664;23.406;2022-11-20T12:42:28;0.80;;;0.50;;
7021;SDS011;3552;42.664;23.406;2022-11-20T12:45:24;0.40;;;0.40;;
7021;SDS011;3552;42.664;23.406;2022-11-20T12:48:25;1.70;;;0.80;;
7021;SDS011;3552;42.664;23.406;2022-11-20T12:54:06;3.60;;;1.00;;
7021;SDS011;3552;42.664;23.406;2022-11-20T12:56:56;2.50;;;1.00;;
7021;SDS011;3552;42.664;23.406;2022-11-20T12:59:33;2.80;;;1.33;;
7021;SDS011;3552;42.664;23.406;2022-11-20T13:02:20;2.40;;;1.17;;
7021;SDS011;3552;42.664;23.406;2022-11-20T13:04:59;3.03;;;1.83;;
7021;SDS011;3552;42.664;23.406;2022-11-20T13:07:40;5.93;;;3.20;;
7021;SDS011;3552;42.664;23.406;2022-11-20T13:10:13;5.57;;;1.60;;
7021;SDS011;3552;42.664;23.406;2022-11-20T13:12:45;4.90;;;1.80;;
7021;SDS011;3552;42.664;23.406;2022-11-20T13:15:18;9.60;;;4.70;;
7021;SDS011;3552;42.664;23.406;2022-11-20T13:17:58;12.60;;;5.27;;
7021;SDS011;3552;42.664;23.406;2022-11-20T13:20:26;6.13;;;2.03;;
7021;SDS011;3552;42.664;23.406;2022-11-20T13:22:54;3.80;;;1.53;;
7021;SDS011;3552;42.664;23.406;2022-11-20T13:25:25;4.90;;;1.50;;
7021;SDS011;3552;42.664;23.406;2022-11-20T13:27:53;9.60;;;3.00;;
7021;SDS011;3552;42.664;23.406;2022-11-20T13:30:21;4.03;;;2.50;;
7021;SDS011;3552;42.664;23.406;2022-11-20T13:32:49;8.90;;;2.90;;
7021;SDS011;3552;42.664;23.406;2022-11-20T13:35:25;5.30;;;2.30;;
7021;SDS011;3552;42.664;23.406;2022-11-20T13:38:04;8.83;;;3.07;;
7021;SDS011;3552;42.664;23.406;2022-11-20T13:40:37;10.13;;;3.60;;
7021;SDS011;3552;42.664;23.406;2022-11-20T13:43:11;5.83;;;2.37;;
7021;SDS011;3552;42.664;23.406;2022-11-20T13:45:53;4.80;;;1.97;;
7021;SDS011;3552;42.664;23.406;2022-11-20T13:48:22;5.57;;;2.03;;
7021;SDS011;3552;42.664;23.406;2022-11-20T13:50:54;4.60;;;1.97;;
7021;SDS011;3552;42.664;23.406;2022-11-20T13:56:23;6.90;;;2.80;;
7021;SDS011;3552;42.664;23.406;2022-11-20T13:59:07;7.77;;;2.77;;
7021;SDS011;3552;42.664;23.406;2022-11-20T14:01:46;12.77;;;4.00;;
7021;SDS011;3552;42.664;23.406;2022-11-20T14:04:14;5.80;;;2.40;;
7021;SDS011;3552;42.664;23.406;2022-11-20T14:06:46;10.60;;;3.40;;
7021;SDS011;3552;42.664;23.406;2022-11-20T14:09:24;11.17;;;3.43;;
7021;SDS011;3552;42.664;23.406;2022-11-20T14:11:54;10.73;;;3.40;;
7021;SDS011;3552;42.664;23.406;2022-11-20T14:14:23;9.70;;;3.90;;
7021;SDS011;3552;42.664;23.406;2022-11-20T14:16:51;10.50;;;4.70;;
7021;SDS011;3552;42.664;23.406;2022-11-20T14:19:23;10.60;;;4.83;;
7021;SDS011;3552;42.664;23.406;2022-11-20T14:21:53;16.87;;;6.90;;
7021;SDS011;3552;42.664;23.406;2022-11-20T14:24:32;13.13;;;8.23;;
7021;SDS011;3552;42.664;23.406;2022-11-20T14:27:01;13.40;;;6.53;;
7021;SDS011;3552;42.664;23.406;2022-11-20T14:29:28;14.07;;;6.40;;
7021;SDS011;3552;42.664;23.406;2022-11-20T14:32:00;11.37;;;6.47;;
7021;SDS011;3552;42.664;23.406;2022-11-20T14:34:30;14.17;;;6.43;;
7021;SDS011;3552;42.664;23.406;2022-11-20T14:37:04;18.07;;;7.43;;
7021;SDS011;3552;42.664;23.406;2022-11-20T14:39:33;12.27;;;5.63;;
7021;SDS011;3552;42.664;23.406;2022-11-20T14:42:11;17.33;;;7.77;;
7021;SDS011;3552;42.664;23.406;2022-11-20T14:44:42;17.87;;;10.87;;
7021;SDS011;3552;42.664;23.406;2022-11-20T14:47:10;19.73;;;11.53;;
7021;SDS011;3552;42.664;23.406;2022-11-20T14:49:39;23.50;;;12.77;;
7021;SDS011;3552;42.664;23.406;2022-11-20T14:52:10;11.33;;;7.37;;
7021;SDS011;3552;42.664;23.406;2022-11-20T14:54:43;11.60;;;5.70;;
7021;SDS011;3552;42.664;23.406;2022-11-20T14:57:23;9.33;;;5.33;;
7021;SDS011;3552;42.664;23.406;2022-11-20T15:00:07;10.27;;;6.60;;
7021;SDS011;3552;42.664;23.406;2022-11-20T15:02:46;10.77;;;6.43;;
7021;SDS011;3552;42.664;23.406;2022-11-20T15:05:14;12.57;;;7.80;;
7021;SDS011;3552;42.664;23.406;2022-11-20T15:07:44;10.63;;;7.33;;
7021;SDS011;3552;42.664;23.406;2022-11-20T15:10:13;29.77;;;15.67;;
7021;SDS011;3552;42.664;23.406;2022-11-20T15:12:48;21.37;;;10.10;;
7021;SDS011;3552;42.664;23.406;2022-11-20T15:15:17;15.97;;;8.27;;
7021;SDS011;3552;42.664;23.406;2022-11-20T15:17:47;18.80;;;9.47;;
7021;SDS011;3552;42.664;23.406;2022-11-20T15:20:15;13.77;;;7.83;;
7021;SDS011;3552;42.664;23.406;2022-11-20T15:22:43;11.93;;;7.07;;
7021;SDS011;3552;42.664;23.406;2022-11-20T15:25:14;13.33;;;6.70;;
7021;SDS011;3552;42.664;23.406;2022-11-20T15:27:42;10.43;;;6.60;;